sensor_id;sensor_type;location;lat;lon;timestamp;pressure;altitude;pressure_sealevel;temperature;humidity
80749;BME280;70145;53.746;9.970;2023-06-22T00:01:02;101703.56;;;16.59;47.97
80749;BME280;70145;53.746;9.970;2023-06-22T00:03:27;101701.16;;;16.56;48.32
80749;BME280;70145;53.746;9.970;2023-06-22T00:05:53;101700.47;;;16.54;48.72
80749;BME280;70145;53.746;9.970;2023-06-22T00:08:19;101694.28;;;16.52;48.41
80749;BME280;70145;53.746;9.970;2023-06-22T00:10:45;101696.31;;;16.50;48.47
80749;BME280;70145;53.746;9.970;2023-06-22T00:13:12;101696.44;;;16.48;48.51
80749;BME280;70145;53.746;9.970;2023-06-22T00:15:40;101700.28;;;16.46;48.69
80749;BME280;70145;53.746;9.970;2023-06-22T00:18:09;101686.13;;;16.42;48.52
80749;BME280;70145;53.746;9.970;2023-06-22T00:20:35;101681.84;;;16.40;48.55
80749;BME280;70145;53.746;9.970;2023-06-22T00:23:05;101685.00;;;16.35;48.86
80749;BME280;70145;53.746;9.970;2023-06-22T00:25:40;101690.72;;;16.32;48.87
80749;BME280;70145;53.746;9.970;2023-06-22T00:28:06;101695.44;;;16.30;48.89
80749;BME280;70145;53.746;9.970;2023-06-22T00:30:32;101693.00;;;16.27;48.99
80749;BME280;70145;53.746;9.970;2023-06-22T00:32:59;101700.59;;;16.23;49.10
80749;BME280;70145;53.746;9.970;2023-06-22T00:35:25;101702.72;;;16.20;48.98
80749;BME280;70145;53.746;9.970;2023-06-22T00:37:57;101703.00;;;16.17;49.04
80749;BME280;70145;53.746;9.970;2023-06-22T00:40:29;101703.44;;;16.12;49.26
80749;BME280;70145;53.746;9.970;2023-06-22T00:42:55;101711.72;;;16.11;49.37
80749;BME280;70145;53.746;9.970;2023-06-22T00:45:21;101710.16;;;16.08;49.31
80749;BME280;70145;53.746;9.970;2023-06-22T00:47:49;101712.16;;;16.06;49.34
80749;BME280;70145;53.746;9.970;2023-06-22T00:50:19;101705.28;;;16.02;49.64
80749;BME280;70145;53.746;9.970;2023-06-22T00:52:49;101703.88;;;15.98;49.57
80749;BME280;70145;53.746;9.970;2023-06-22T00:55:16;101702.31;;;15.96;49.62
80749;BME280;70145;53.746;9.970;2023-06-22T00:57:44;101716.16;;;15.93;49.84
80749;BME280;70145;53.746;9.970;2023-06-22T01:00:11;101711.84;;;15.90;49.60
80749;BME280;70145;53.746;9.970;2023-06-22T01:02:44;101721.16;;;15.88;49.86
80749;BME280;70145;53.746;9.970;2023-06-22T01:05:18;101717.88;;;15.84;49.80
80749;BME280;70145;53.746;9.970;2023-06-22T01:08:06;101727.28;;;15.80;49.91
80749;BME280;70145;53.746;9.970;2023-06-22T01:10:39;101725.56;;;15.79;49.82
80749;BME280;70145;53.746;9.970;2023-06-22T01:13:26;101714.97;;;15.76;50.07
80749;BME280;70145;53.746;9.970;2023-06-22T01:16:05;101719.84;;;15.73;50.09
80749;BME280;70145;53.746;9.970;2023-06-22T01:18:35;101714.53;;;15.71;50.13
80749;BME280;70145;53.746;9.970;2023-06-22T01:21:02;101713.78;;;15.69;50.59
80749;BME280;70145;53.746;9.970;2023-06-22T01:23:51;101713.94;;;15.68;50.40
80749;BME280;70145;53.746;9.970;2023-06-22T01:26:25;101709.66;;;15.65;50.37
80749;BME280;70145;53.746;9.970;2023-06-22T01:28:55;101697.19;;;15.63;50.57
80749;BME280;70145;53.746;9.970;2023-06-22T01:31:25;101706.47;;;15.60;50.74
80749;BME280;70145;53.746;9.970;2023-06-22T01:33:53;101704.03;;;15.57;50.66
80749;BME280;70145;53.746;9.970;2023-06-22T01:36:21;101706.03;;;15.55;50.83
80749;BME280;70145;53.746;9.970;2023-06-22T01:38:47;101703.47;;;15.54;50.69
80749;BME280;70145;53.746;9.970;2023-06-22T01:41:13;101711.75;;;15.52;50.73
80749;BME280;70145;53.746;9.970;2023-06-22T01:43:39;101702.88;;;15.50;50.98
80749;BME280;70145;53.746;9.970;2023-06-22T01:46:06;101688.75;;;15.47;51.04
80749;BME280;70145;53.746;9.970;2023-06-22T01:48:31;101697.03;;;15.45;51.14
80749;BME280;70145;53.746;9.970;2023-06-22T01:50:57;101698.00;;;15.44;50.78
80749;BME280;70145;53.746;9.970;2023-06-22T01:53:23;101700.00;;;15.42;50.99
80749;BME280;70145;53.746;9.970;2023-06-22T01:55:48;101699.28;;;15.40;51.14
80749;BME280;70145;53.746;9.970;2023-06-22T01:58:14;101698.53;;;15.38;51.38
80749;BME280;70145;53.746;9.970;2023-06-22T02:00:43;101699.69;;;15.36;51.37
80749;BME280;70145;53.746;9.970;2023-06-22T02:03:13;101698.25;;;15.32;51.36
80749;BME280;70145;53.746;9.970;2023-06-22T02:05:59;101699.38;;;15.29;51.29
80749;BME280;70145;53.746;9.970;2023-06-22T02:08:30;101706.81;;;15.27;51.46
80749;BME280;70145;53.746;9.970;2023-06-22T02:10:57;101702.38;;;15.26;51.58
80749;BME280;70145;53.746;9.970;2023-06-22T02:13:25;101711.50;;;15.25;51.37
80749;BME280;70145;53.746;9.970;2023-06-22T02:15:50;101709.06;;;15.22;51.62
80749;BME280;70145;53.746;9.970;2023-06-22T02:18:16;101710.06;;;15.21;51.63
80749;BME280;70145;53.746;9.970;2023-06-22T02:20:41;101711.06;;;15.20;51.65
80749;BME280;70145;53.746;9.970;2023-06-22T02:23:07;101709.34;;;15.19;51.78
80749;BME280;70145;53.746;9.970;2023-06-22T02:25:33;101702.19;;;15.18;51.91
80749;BME280;70145;53.746;9.970;2023-06-22T02:27:59;101701.47;;;15.16;52.10
80749;BME280;70145;53.746;9.970;2023-06-22T02:30:24;101709.63;;;15.16;52.27
80749;BME280;70145;53.746;9.970;2023-06-22T02:32:50;101714.19;;;15.16;52.12
80749;BME280;70145;53.746;9.970;2023-06-22T02:35:23;101708.88;;;15.14;52.07
80749;BME280;70145;53.746;9.970;2023-06-22T02:37:48;101693.63;;;15.13;52.08
80749;BME280;70145;53.746;9.970;2023-06-22T02:40:17;101695.44;;;15.13;52.40
80749;BME280;70145;53.746;9.970;2023-06-22T02:42:42;101694.59;;;15.12;52.21
80749;BME280;70145;53.746;9.970;2023-06-22T02:45:08;101691.16;;;15.10;52.34
80749;BME280;70145;53.746;9.970;2023-06-22T02:47:33;101697.44;;;15.11;52.29
80749;BME280;70145;53.746;9.970;2023-06-22T02:49:58;101703.00;;;15.09;52.37
80749;BME280;70145;53.746;9.970;2023-06-22T02:52:24;101693.16;;;15.08;52.30
80749;BME280;70145;53.746;9.970;2023-06-22T02:54:49;101695.00;;;15.08;52.59
80749;BME280;70145;53.746;9.970;2023-06-22T02:57:14;101697.00;;;15.06;52.47
80749;BME280;70145;53.746;9.970;2023-06-22T02:59:40;101695.28;;;15.05;52.48
80749;BME280;70145;53.746;9.970;2023-06-22T03:02:07;101701.81;;;15.02;52.42
80749;BME280;70145;53.746;9.970;2023-06-22T03:04:33;101704.66;;;15.01;52.63
80749;BME280;70145;53.746;9.970;2023-06-22T03:06:58;101692.13;;;15.00;52.54
80749;BME280;70145;53.746;9.970;2023-06-22T03:09:29;101700.38;;;14.98;52.64
80749;BME280;70145;53.746;9.970;2023-06-22T03:11:55;101704.09;;;14.97;52.73
80749;BME280;70145;53.746;9.970;2023-06-22T03:14:21;101698.81;;;14.96;52.55
80749;BME280;70145;53.746;9.970;2023-06-22T03:16:46;101697.16;;;14.93;52.65
80749;BME280;70145;53.746;9.970;2023-06-22T03:19:12;101701.75;;;14.93;52.71
80749;BME280;70145;53.746;9.970;2023-06-22T03:21:38;101701.16;;;14.89;52.52
80749;BME280;70145;53.746;9.970;2023-06-22T03:24:04;101703.16;;;14.87;52.70
80749;BME280;70145;53.746;9.970;2023-06-22T03:26:30;101700.59;;;14.86;52.51
80749;BME280;70145;53.746;9.970;2023-06-22T03:28:55;101701.69;;;14.83;53.03
80749;BME280;70145;53.746;9.970;2023-06-22T03:31:21;101707.25;;;14.82;52.65
80749;BME280;70145;53.746;9.970;2023-06-22T03:33:48;101705.41;;;14.82;52.81
80749;BME280;70145;53.746;9.970;2023-06-22T03:36:14;101716.50;;;14.79;52.41
80749;BME280;70145;53.746;9.970;2023-06-22T03:38:43;101710.50;;;14.76;52.71
80749;BME280;70145;53.746;9.970;2023-06-22T03:41:09;101714.19;;;14.75;52.75
80749;BME280;70145;53.746;9.970;2023-06-22T03:43:34;101711.63;;;14.73;52.81
80749;BME280;70145;53.746;9.970;2023-06-22T03:45:59;101705.34;;;14.73;52.74
80749;BME280;70145;53.746;9.970;2023-06-22T03:48:25;101705.50;;;14.71;53.03
80749;BME280;70145;53.746;9.970;2023-06-22T03:50:50;101709.16;;;14.70;52.29
80749;BME280;70145;53.746;9.970;2023-06-22T03:53:15;101714.72;;;14.69;52.94
80749;BME280;70145;53.746;9.970;2023-06-22T03:55:48;101721.16;;;14.68;53.06
80749;BME280;70145;53.746;9.970;2023-06-22T03:58:14;101729.28;;;14.68;53.14
80749;BME280;70145;53.746;9.970;2023-06-22T04:00:39;101723.00;;;14.67;53.37
80749;BME280;70145;53.746;9.970;2023-06-22T04:03:04;101726.69;;;14.66;53.40
80749;BME280;70145;53.746;9.970;2023-06-22T04:05:32;101717.56;;;14.67;53.36
80749;BME280;70145;53.746;9.970;2023-06-22T04:07:57;101726.69;;;14.66;53.60
80749;BME280;70145;53.746;9.970;2023-06-22T04:10:23;101729.41;;;14.66;53.67
80749;BME280;70145;53.746;9.970;2023-06-22T04:12:48;101740.25;;;14.66;53.86
80749;BME280;70145;53.746;9.970;2023-06-22T04:15:14;101726.69;;;14.66;53.92
80749;BME280;70145;53.746;9.970;2023-06-22T04:17:39;101730.16;;;14.68;53.98
80749;BME280;70145;53.746;9.970;2023-06-22T04:20:05;101731.88;;;14.69;53.98
80749;BME280;70145;53.746;9.970;2023-06-22T04:22:30;101735.31;;;14.71;54.32
80749;BME280;70145;53.746;9.970;2023-06-22T04:24:56;101740.47;;;14.74;54.21
80749;BME280;70145;53.746;9.970;2023-06-22T04:27:21;101737.63;;;14.76;54.20
80749;BME280;70145;53.746;9.970;2023-06-22T04:29:48;101743.63;;;14.79;54.45
80749;BME280;70145;53.746;9.970;2023-06-22T04:32:17;101737.06;;;14.82;54.65
80749;BME280;70145;53.746;9.970;2023-06-22T04:34:43;101742.38;;;14.83;54.67
80749;BME280;70145;53.746;9.970;2023-06-22T04:37:09;101749.25;;;14.87;54.53
80749;BME280;70145;53.746;9.970;2023-06-22T04:39:34;101752.69;;;14.89;54.42
80749;BME280;70145;53.746;9.970;2023-06-22T04:42:00;101744.28;;;14.92;54.39
80749;BME280;70145;53.746;9.970;2023-06-22T04:44:26;101749.47;;;14.95;54.57
80749;BME280;70145;53.746;9.970;2023-06-22T04:46:57;101748.34;;;14.98;54.79
80749;BME280;70145;53.746;9.970;2023-06-22T04:49:27;101757.22;;;15.00;54.76
80749;BME280;70145;53.746;9.970;2023-06-22T04:52:02;101752.41;;;15.03;54.69
80749;BME280;70145;53.746;9.970;2023-06-22T04:54:28;101755.81;;;15.05;55.01
80749;BME280;70145;53.746;9.970;2023-06-22T04:56:54;101759.28;;;15.07;55.17
80749;BME280;70145;53.746;9.970;2023-06-22T04:59:22;101749.84;;;15.11;55.02
80749;BME280;70145;53.746;9.970;2023-06-22T05:01:53;101754.16;;;15.14;55.30
80749;BME280;70145;53.746;9.970;2023-06-22T05:04:18;101755.75;;;15.16;55.17
80749;BME280;70145;53.746;9.970;2023-06-22T05:06:44;101744.63;;;15.19;54.90
80749;BME280;70145;53.746;9.970;2023-06-22T05:09:10;101750.63;;;15.23;55.12
80749;BME280;70145;53.746;9.970;2023-06-22T05:11:37;101753.06;;;15.26;55.21
80749;BME280;70145;53.746;9.970;2023-06-22T05:14:02;101754.66;;;15.28;55.48
80749;BME280;70145;53.746;9.970;2023-06-22T05:16:27;101758.84;;;15.32;55.53
80749;BME280;70145;53.746;9.970;2023-06-22T05:18:54;101765.69;;;15.36;55.35
80749;BME280;70145;53.746;9.970;2023-06-22T05:21:24;101758.41;;;15.37;55.44
80749;BME280;70145;53.746;9.970;2023-06-22T05:23:50;101757.03;;;15.42;55.28
80749;BME280;70145;53.746;9.970;2023-06-22T05:26:15;101759.47;;;15.45;55.65
80749;BME280;70145;53.746;9.970;2023-06-22T05:28:40;101759.16;;;15.48;55.27
80749;BME280;70145;53.746;9.970;2023-06-22T05:31:06;101761.59;;;15.51;55.50
80749;BME280;70145;53.746;9.970;2023-06-22T05:33:31;101760.50;;;15.54;55.51
80749;BME280;70145;53.746;9.970;2023-06-22T05:35:56;101762.94;;;15.57;55.43
80749;BME280;70145;53.746;9.970;2023-06-22T05:38:22;101766.22;;;15.60;55.42
80749;BME280;70145;53.746;9.970;2023-06-22T05:40:47;101765.06;;;15.63;55.74
80749;BME280;70145;53.746;9.970;2023-06-22T05:43:12;101765.66;;;15.66;55.56
80749;BME280;70145;53.746;9.970;2023-06-22T05:45:37;101774.41;;;15.70;55.38
80749;BME280;70145;53.746;9.970;2023-06-22T05:48:03;101767.72;;;15.74;55.19
80749;BME280;70145;53.746;9.970;2023-06-22T05:50:28;101763.88;;;15.76;55.06
80749;BME280;70145;53.746;9.970;2023-06-22T05:52:54;101773.44;;;15.80;55.40
80749;BME280;70145;53.746;9.970;2023-06-22T05:55:19;101766.78;;;15.84;55.52
80749;BME280;70145;53.746;9.970;2023-06-22T05:57:44;101774.78;;;15.86;55.32
80749;BME280;70145;53.746;9.970;2023-06-22T06:00:10;101760.88;;;15.89;55.03
80749;BME280;70145;53.746;9.970;2023-06-22T06:02:37;101766.78;;;15.94;55.08
80749;BME280;70145;53.746;9.970;2023-06-22T06:05:02;101761.94;;;15.97;54.73
80749;BME280;70145;53.746;9.970;2023-06-22T06:07:28;101761.66;;;16.00;54.95
80749;BME280;70145;53.746;9.970;2023-06-22T06:09:54;101760.22;;;16.06;54.74
80749;BME280;70145;53.746;9.970;2023-06-22T06:12:19;101753.66;;;16.08;54.48
80749;BME280;70145;53.746;9.970;2023-06-22T06:14:44;101757.78;;;16.12;54.32
80749;BME280;70145;53.746;9.970;2023-06-22T06:17:10;101755.53;;;16.17;54.46
80749;BME280;70145;53.746;9.970;2023-06-22T06:19:35;101745.94;;;16.23;54.49
80749;BME280;70145;53.746;9.970;2023-06-22T06:22:00;101753.66;;;16.27;54.36
80749;BME280;70145;53.746;9.970;2023-06-22T06:24:26;101759.53;;;16.32;54.54
80749;BME280;70145;53.746;9.970;2023-06-22T06:26:51;101758.94;;;16.38;54.67
80749;BME280;70145;53.746;9.970;2023-06-22T06:29:16;101748.66;;;16.42;54.38
80749;BME280;70145;53.746;9.970;2023-06-22T06:31:42;101749.94;;;16.48;53.92
80749;BME280;70145;53.746;9.970;2023-06-22T06:34:07;101753.97;;;16.53;54.12
80749;BME280;70145;53.746;9.970;2023-06-22T06:36:32;101750.81;;;16.58;53.95
80749;BME280;70145;53.746;9.970;2023-06-22T06:38:58;101750.41;;;16.62;53.74
80749;BME280;70145;53.746;9.970;2023-06-22T06:41:23;101746.22;;;16.68;53.55
80749;BME280;70145;53.746;9.970;2023-06-22T06:43:48;101752.94;;;16.73;53.48
80749;BME280;70145;53.746;9.970;2023-06-22T06:46:14;101756.97;;;16.79;53.41
80749;BME280;70145;53.746;9.970;2023-06-22T06:48:39;101750.91;;;16.85;53.48
80749;BME280;70145;53.746;9.970;2023-06-22T06:51:05;101758.50;;;16.91;53.23
80749;BME280;70145;53.746;9.970;2023-06-22T06:53:31;101750.63;;;16.97;53.09
80749;BME280;70145;53.746;9.970;2023-06-22T06:55:56;101755.34;;;17.05;52.99
80749;BME280;70145;53.746;9.970;2023-06-22T06:58:22;101751.03;;;17.12;53.17
80749;BME280;70145;53.746;9.970;2023-06-22T07:00:48;101743.81;;;17.20;52.57
80749;BME280;70145;53.746;9.970;2023-06-22T07:03:14;101743.13;;;17.28;52.24
80749;BME280;70145;53.746;9.970;2023-06-22T07:05:39;101742.19;;;17.37;52.46
80749;BME280;70145;53.746;9.970;2023-06-22T07:08:04;101743.19;;;17.45;52.17
80749;BME280;70145;53.746;9.970;2023-06-22T07:10:30;101734.25;;;17.53;52.01
80749;BME280;70145;53.746;9.970;2023-06-22T07:12:55;101735.38;;;17.60;51.90
80749;BME280;70145;53.746;9.970;2023-06-22T07:15:22;101744.50;;;17.68;51.16
80749;BME280;70145;53.746;9.970;2023-06-22T07:17:47;101748.19;;;17.77;51.14
80749;BME280;70145;53.746;9.970;2023-06-22T07:20:12;101755.59;;;17.84;51.00
80749;BME280;70145;53.746;9.970;2023-06-22T07:22:39;101741.34;;;17.90;50.71
80749;BME280;70145;53.746;9.970;2023-06-22T07:25:05;101747.22;;;17.95;50.63
80749;BME280;70145;53.746;9.970;2023-06-22T07:27:38;101745.44;;;18.04;50.30
80749;BME280;70145;53.746;9.970;2023-06-22T07:30:08;101755.59;;;18.11;50.18
80749;BME280;70145;53.746;9.970;2023-06-22T07:32:34;101746.63;;;18.19;50.02
80749;BME280;70145;53.746;9.970;2023-06-22T07:34:59;101744.84;;;18.27;50.01
80749;BME280;70145;53.746;9.970;2023-06-22T07:37:24;101751.22;;;18.36;50.00
80749;BME280;70145;53.746;9.970;2023-06-22T07:39:52;101743.97;;;18.44;50.02
80749;BME280;70145;53.746;9.970;2023-06-22T07:42:19;101746.63;;;18.54;49.70
80749;BME280;70145;53.746;9.970;2023-06-22T07:44:44;101739.25;;;18.64;49.58
80749;BME280;70145;53.746;9.970;2023-06-22T07:47:09;101743.72;;;18.73;49.54
80749;BME280;70145;53.746;9.970;2023-06-22T07:49:35;101746.38;;;18.83;49.33
80749;BME280;70145;53.746;9.970;2023-06-22T07:52:00;101743.69;;;18.91;49.35
80749;BME280;70145;53.746;9.970;2023-06-22T07:54:26;101740.88;;;19.00;49.03
80749;BME280;70145;53.746;9.970;2023-06-22T07:56:52;101750.84;;;19.09;48.99
80749;BME280;70145;53.746;9.970;2023-06-22T07:59:18;101741.66;;;19.18;48.96
80749;BME280;70145;53.746;9.970;2023-06-22T08:01:43;101737.97;;;19.27;48.70
80749;BME280;70145;53.746;9.970;2023-06-22T08:04:09;101738.91;;;19.36;48.50
80749;BME280;70145;53.746;9.970;2023-06-22T08:06:34;101736.06;;;19.45;48.28
80749;BME280;70145;53.746;9.970;2023-06-22T08:08:59;101732.16;;;19.56;48.02
80749;BME280;70145;53.746;9.970;2023-06-22T08:11:25;101735.81;;;19.64;47.84
80749;BME280;70145;53.746;9.970;2023-06-22T08:13:51;101734.94;;;19.72;47.42
80749;BME280;70145;53.746;9.970;2023-06-22T08:16:16;101739.59;;;19.79;47.51
80749;BME280;70145;53.746;9.970;2023-06-22T08:18:42;101739.66;;;19.87;47.47
80749;BME280;70145;53.746;9.970;2023-06-22T08:21:07;101742.03;;;19.90;46.71
80749;BME280;70145;53.746;9.970;2023-06-22T08:23:32;101741.06;;;19.99;46.28
80749;BME280;70145;53.746;9.970;2023-06-22T08:25:57;101740.06;;;20.08;46.71
80749;BME280;70145;53.746;9.970;2023-06-22T08:28:23;101737.53;;;20.15;46.40
80749;BME280;70145;53.746;9.970;2023-06-22T08:30:48;101739.22;;;20.24;46.39
80749;BME280;70145;53.746;9.970;2023-06-22T08:33:13;101740.13;;;20.32;46.19
80749;BME280;70145;53.746;9.970;2023-06-22T08:35:39;101723.69;;;20.40;46.07
80749;BME280;70145;53.746;9.970;2023-06-22T08:38:04;101724.38;;;20.50;45.98
80749;BME280;70145;53.746;9.970;2023-06-22T08:40:29;101716.19;;;20.59;45.81
80749;BME280;70145;53.746;9.970;2023-06-22T08:42:55;101715.31;;;20.66;45.46
80749;BME280;70145;53.746;9.970;2023-06-22T08:45:20;101720.81;;;20.74;45.52
80749;BME280;70145;53.746;9.970;2023-06-22T08:47:45;101719.97;;;20.82;45.35
80749;BME280;70145;53.746;9.970;2023-06-22T08:50:11;101725.59;;;20.88;45.00
80749;BME280;70145;53.746;9.970;2023-06-22T08:52:38;101718.38;;;20.95;44.60
80749;BME280;70145;53.746;9.970;2023-06-22T08:55:06;101713.06;;;21.02;44.20
80749;BME280;70145;53.746;9.970;2023-06-22T08:57:32;101715.78;;;21.10;44.26
80749;BME280;70145;53.746;9.970;2023-06-22T08:59:58;101704.81;;;21.18;43.98
80749;BME280;70145;53.746;9.970;2023-06-22T09:02:24;101713.72;;;21.28;43.71
80749;BME280;70145;53.746;9.970;2023-06-22T09:04:49;101706.50;;;21.35;43.67
80749;BME280;70145;53.746;9.970;2023-06-22T09:07:22;101709.00;;;21.44;43.68
80749;BME280;70145;53.746;9.970;2023-06-22T09:09:48;101706.94;;;21.54;43.64
80749;BME280;70145;53.746;9.970;2023-06-22T09:12:14;101713.25;;;21.63;43.26
80749;BME280;70145;53.746;9.970;2023-06-22T09:14:39;101707.41;;;21.66;43.16
80749;BME280;70145;53.746;9.970;2023-06-22T09:17:05;101701.19;;;21.72;42.65
80749;BME280;70145;53.746;9.970;2023-06-22T09:19:30;101694.97;;;21.78;43.17
80749;BME280;70145;53.746;9.970;2023-06-22T09:21:55;101690.66;;;21.83;42.34
80749;BME280;70145;53.746;9.970;2023-06-22T09:24:21;101695.28;;;21.91;42.06
80749;BME280;70145;53.746;9.970;2023-06-22T09:26:46;101696.94;;;22.00;42.34
80749;BME280;70145;53.746;9.970;2023-06-22T09:29:11;101693.13;;;22.09;41.99
80749;BME280;70145;53.746;9.970;2023-06-22T09:31:36;101684.16;;;22.15;41.72
80749;BME280;70145;53.746;9.970;2023-06-22T09:34:02;101676.53;;;22.25;41.87
80749;BME280;70145;53.746;9.970;2023-06-22T09:36:27;101676.44;;;22.33;41.83
80749;BME280;70145;53.746;9.970;2023-06-22T09:38:52;101674.31;;;22.43;42.00
80749;BME280;70145;53.746;9.970;2023-06-22T09:41:20;101673.91;;;22.54;42.16
80749;BME280;70145;53.746;9.970;2023-06-22T09:43:45;101667.50;;;22.62;41.61
80749;BME280;70145;53.746;9.970;2023-06-22T09:46:10;101669.09;;;22.71;41.61
80749;BME280;70145;53.746;9.970;2023-06-22T09:48:36;101665.91;;;22.82;41.32
80749;BME280;70145;53.746;9.970;2023-06-22T09:51:01;101673.88;;;22.91;41.11
80749;BME280;70145;53.746;9.970;2023-06-22T09:53:27;101677.19;;;23.01;41.13
80749;BME280;70145;53.746;9.970;2023-06-22T09:55:53;101669.94;;;23.08;41.10
80749;BME280;70145;53.746;9.970;2023-06-22T09:58:18;101663.31;;;23.17;41.07
80749;BME280;70145;53.746;9.970;2023-06-22T10:00:44;101660.28;;;23.27;40.93
80749;BME280;70145;53.746;9.970;2023-06-22T10:03:09;101663.78;;;23.35;40.66
80749;BME280;70145;53.746;9.970;2023-06-22T10:05:34;101661.59;;;23.45;40.67
80749;BME280;70145;53.746;9.970;2023-06-22T10:07:59;101664.88;;;23.55;40.93
80749;BME280;70145;53.746;9.970;2023-06-22T10:10:25;101656.53;;;23.63;40.31
80749;BME280;70145;53.746;9.970;2023-06-22T10:13:01;101664.03;;;23.69;40.40
80749;BME280;70145;53.746;9.970;2023-06-22T10:15:27;101659.44;;;23.76;39.79
80749;BME280;70145;53.746;9.970;2023-06-22T10:17:53;101653.16;;;23.82;40.13
80749;BME280;70145;53.746;9.970;2023-06-22T10:20:18;101657.03;;;23.88;39.82
80749;BME280;70145;53.746;9.970;2023-06-22T10:22:44;101657.50;;;23.91;39.72
80749;BME280;70145;53.746;9.970;2023-06-22T10:25:11;101641.47;;;23.95;39.80
80749;BME280;70145;53.746;9.970;2023-06-22T10:27:37;101649.13;;;23.99;39.46
80749;BME280;70145;53.746;9.970;2023-06-22T10:30:10;101647.50;;;24.05;39.53
80749;BME280;70145;53.746;9.970;2023-06-22T10:32:39;101641.22;;;24.11;39.45
80749;BME280;70145;53.746;9.970;2023-06-22T10:35:05;101644.22;;;24.16;39.21
80749;BME280;70145;53.746;9.970;2023-06-22T10:37:31;101629.03;;;24.20;39.03
80749;BME280;70145;53.746;9.970;2023-06-22T10:39:56;101637.38;;;24.26;38.50
80749;BME280;70145;53.746;9.970;2023-06-22T10:42:21;101638.66;;;24.30;38.75
80749;BME280;70145;53.746;9.970;2023-06-22T10:44:47;101637.00;;;24.36;38.56
80749;BME280;70145;53.746;9.970;2023-06-22T10:47:12;101621.19;;;24.44;38.44
80749;BME280;70145;53.746;9.970;2023-06-22T10:49:41;101621.06;;;24.52;38.60
80749;BME280;70145;53.746;9.970;2023-06-22T10:52:07;101617.13;;;24.62;38.40
80749;BME280;70145;53.746;9.970;2023-06-22T10:54:34;101623.53;;;24.69;38.53
80749;BME280;70145;53.746;9.970;2023-06-22T10:57:01;101626.13;;;24.77;38.51
80749;BME280;70145;53.746;9.970;2023-06-22T10:59:26;101622.59;;;24.83;38.46
80749;BME280;70145;53.746;9.970;2023-06-22T11:01:53;101622.84;;;24.88;38.01
80749;BME280;70145;53.746;9.970;2023-06-22T11:04:18;101632.19;;;24.93;38.33
80749;BME280;70145;53.746;9.970;2023-06-22T11:06:43;101624.81;;;25.00;38.13
80749;BME280;70145;53.746;9.970;2023-06-22T11:09:09;101621.69;;;25.10;38.21
80749;BME280;70145;53.746;9.970;2023-06-22T11:11:34;101613.25;;;25.18;37.58
80749;BME280;70145;53.746;9.970;2023-06-22T11:13:59;101607.13;;;25.22;37.71
80749;BME280;70145;53.746;9.970;2023-06-22T11:16:25;101604.63;;;25.27;37.34
80749;BME280;70145;53.746;9.970;2023-06-22T11:18:50;101601.91;;;25.34;37.11
80749;BME280;70145;53.746;9.970;2023-06-22T11:21:15;101599.38;;;25.39;37.22
80749;BME280;70145;53.746;9.970;2023-06-22T11:23:42;101590.28;;;25.45;37.47
80749;BME280;70145;53.746;9.970;2023-06-22T11:26:07;101589.44;;;25.51;37.20
80749;BME280;70145;53.746;9.970;2023-06-22T11:28:32;101587.97;;;25.55;37.21
80749;BME280;70145;53.746;9.970;2023-06-22T11:30:58;101583.09;;;25.57;37.18
80749;BME280;70145;53.746;9.970;2023-06-22T11:33:23;101585.44;;;25.60;36.31
80749;BME280;70145;53.746;9.970;2023-06-22T11:35:49;101578.44;;;25.64;36.69
80749;BME280;70145;53.746;9.970;2023-06-22T11:38:14;101585.03;;;25.69;35.96
80749;BME280;70145;53.746;9.970;2023-06-22T11:40:39;101573.16;;;25.75;36.76
80749;BME280;70145;53.746;9.970;2023-06-22T11:43:05;101576.59;;;25.84;36.84
80749;BME280;70145;53.746;9.970;2023-06-22T11:45:30;101575.78;;;25.90;36.63
80749;BME280;70145;53.746;9.970;2023-06-22T11:47:55;101569.41;;;25.96;36.11
80749;BME280;70145;53.746;9.970;2023-06-22T11:50:21;101579.63;;;26.02;36.23
80749;BME280;70145;53.746;9.970;2023-06-22T11:52:46;101577.72;;;26.09;36.62
80749;BME280;70145;53.746;9.970;2023-06-22T11:55:11;101566.25;;;26.12;35.68
80749;BME280;70145;53.746;9.970;2023-06-22T11:57:39;101566.91;;;26.14;35.73
80749;BME280;70145;53.746;9.970;2023-06-22T12:00:16;101566.44;;;26.17;36.09
80749;BME280;70145;53.746;9.970;2023-06-22T12:02:43;101563.47;;;26.18;35.58
80749;BME280;70145;53.746;9.970;2023-06-22T12:05:10;101568.16;;;26.18;35.56
80749;BME280;70145;53.746;9.970;2023-06-22T12:07:35;101561.38;;;26.14;35.21
80749;BME280;70145;53.746;9.970;2023-06-22T12:10:02;101555.41;;;26.17;35.54
80749;BME280;70145;53.746;9.970;2023-06-22T12:12:27;101554.34;;;26.18;35.54
80749;BME280;70145;53.746;9.970;2023-06-22T12:14:52;101547.97;;;26.17;35.24
80749;BME280;70145;53.746;9.970;2023-06-22T12:17:18;101542.66;;;26.16;35.26
80749;BME280;70145;53.746;9.970;2023-06-22T12:19:43;101539.28;;;26.14;35.21
80749;BME280;70145;53.746;9.970;2023-06-22T12:22:08;101534.59;;;26.14;35.25
80749;BME280;70145;53.746;9.970;2023-06-22T12:24:33;101532.69;;;26.15;35.21
80749;BME280;70145;53.746;9.970;2023-06-22T12:26:59;101535.25;;;26.16;35.31
80749;BME280;70145;53.746;9.970;2023-06-22T12:29:24;101528.44;;;26.19;35.18
80749;BME280;70145;53.746;9.970;2023-06-22T12:31:49;101528.00;;;26.22;35.67
80749;BME280;70145;53.746;9.970;2023-06-22T12:34:14;101519.94;;;26.27;35.66
80749;BME280;70145;53.746;9.970;2023-06-22T12:36:40;101515.91;;;26.29;35.34
80749;BME280;70145;53.746;9.970;2023-06-22T12:39:05;101508.44;;;26.30;35.26
80749;BME280;70145;53.746;9.970;2023-06-22T12:41:33;101510.81;;;26.33;35.63
80749;BME280;70145;53.746;9.970;2023-06-22T12:43:58;101514.22;;;26.35;35.04
80749;BME280;70145;53.746;9.970;2023-06-22T12:46:24;101515.47;;;26.39;35.81